sensor_id;sensor_type;location;lat;lon;timestamp;temperature;humidity
22065;DHT22;11197;53.110;8.468;2023-07-20T00:01:45;16.30;99.90
22065;DHT22;11197;53.110;8.468;2023-07-20T00:04:13;16.30;99.90
22065;DHT22;11197;53.110;8.468;2023-07-20T00:06:39;16.30;99.90
22065;DHT22;11197;53.110;8.468;2023-07-20T00:09:06;16.30;99.90
22065;DHT22;11197;53.110;8.468;2023-07-20T00:11:31;16.40;99.90
22065;DHT22;11197;53.110;8.468;2023-07-20T00:13:57;16.40;99.90
22065;DHT22;11197;53.110;8.468;2023-07-20T00:16:23;16.20;99.90
22065;DHT22;11197;53.110;8.468;2023-07-20T00:18:51;16.20;99.90
22065;DHT22;11197;53.110;8.468;2023-07-20T00:21:17;16.20;99.90
22065;DHT22;11197;53.110;8.468;2023-07-20T00:23:43;16.20;99.90
22065;DHT22;11197;53.110;8.468;2023-07-20T00:26:08;16.20;99.90
22065;DHT22;11197;53.110;8.468;2023-07-20T00:28:34;16.20;99.90
22065;DHT22;11197;53.110;8.468;2023-07-20T00:31:00;16.20;99.90
22065;DHT22;11197;53.110;8.468;2023-07-20T00:33:26;16.20;99.90
22065;DHT22;11197;53.110;8.468;2023-07-20T00:35:52;16.20;99.90
22065;DHT22;11197;53.110;8.468;2023-07-20T00:38:18;16.20;99.90
22065;DHT22;11197;53.110;8.468;2023-07-20T00:40:43;16.20;99.90
22065;DHT22;11197;53.110;8.468;2023-07-20T00:43:10;16.10;99.90
22065;DHT22;11197;53.110;8.468;2023-07-20T00:45:36;16.20;99.90
22065;DHT22;11197;53.110;8.468;2023-07-20T00:48:04;16.20;99.90
22065;DHT22;11197;53.110;8.468;2023-07-20T00:50:31;16.20;99.90
22065;DHT22;11197;53.110;8.468;2023-07-20T00:52:57;16.20;99.90
22065;DHT22;11197;53.110;8.468;2023-07-20T00:55:24;16.20;99.90
22065;DHT22;11197;53.110;8.468;2023-07-20T00:57:51;16.30;99.90
22065;DHT22;11197;53.110;8.468;2023-07-20T01:00:17;16.30;99.90
22065;DHT22;11197;53.110;8.468;2023-07-20T01:02:43;16.30;99.90
22065;DHT22;11197;53.110;8.468;2023-07-20T01:05:09;16.30;99.90
22065;DHT22;11197;53.110;8.468;2023-07-20T01:07:38;16.20;99.90
22065;DHT22;11197;53.110;8.468;2023-07-20T01:10:24;16.20;99.90
22065;DHT22;11197;53.110;8.468;2023-07-20T01:12:55;16.20;99.90
22065;DHT22;11197;53.110;8.468;2023-07-20T01:15:21;16.30;99.90
22065;DHT22;11197;53.110;8.468;2023-07-20T01:17:47;16.30;99.90
22065;DHT22;11197;53.110;8.468;2023-07-20T01:20:14;16.30;99.90
22065;DHT22;11197;53.110;8.468;2023-07-20T01:31:28;16.30;99.90
22065;DHT22;11197;53.110;8.468;2023-07-20T01:33:56;16.30;99.90
22065;DHT22;11197;53.110;8.468;2023-07-20T01:36:23;16.20;99.90
22065;DHT22;11197;53.110;8.468;2023-07-20T01:38:51;16.20;99.90
22065;DHT22;11197;53.110;8.468;2023-07-20T01:41:17;16.30;99.90
22065;DHT22;11197;53.110;8.468;2023-07-20T01:43:43;16.30;99.90
22065;DHT22;11197;53.110;8.468;2023-07-20T01:46:09;16.30;99.90
22065;DHT22;11197;53.110;8.468;2023-07-20T01:48:35;16.30;99.90
22065;DHT22;11197;53.110;8.468;2023-07-20T01:51:01;16.20;99.90
22065;DHT22;11197;53.110;8.468;2023-07-20T01:53:26;16.20;99.90
22065;DHT22;11197;53.110;8.468;2023-07-20T01:55:56;16.20;99.90
22065;DHT22;11197;53.110;8.468;2023-07-20T01:58:22;16.20;99.90
22065;DHT22;11197;53.110;8.468;2023-07-20T02:00:48;16.20;99.90
22065;DHT22;11197;53.110;8.468;2023-07-20T02:03:14;16.20;99.90
22065;DHT22;11197;53.110;8.468;2023-07-20T02:05:42;16.10;99.90
22065;DHT22;11197;53.110;8.468;2023-07-20T02:08:09;16.20;99.90
22065;DHT22;11197;53.110;8.468;2023-07-20T02:10:35;16.20;99.90
22065;DHT22;11197;53.110;8.468;2023-07-20T02:13:01;16.20;99.90
22065;DHT22;11197;53.110;8.468;2023-07-20T02:15:27;16.20;99.90
22065;DHT22;11197;53.110;8.468;2023-07-20T02:17:54;16.20;99.90
22065;DHT22;11197;53.110;8.468;2023-07-20T02:20:19;16.20;99.90
22065;DHT22;11197;53.110;8.468;2023-07-20T02:22:45;16.10;99.90
22065;DHT22;11197;53.110;8.468;2023-07-20T02:25:11;16.20;99.90
22065;DHT22;11197;53.110;8.468;2023-07-20T02:27:37;16.20;99.90
22065;DHT22;11197;53.110;8.468;2023-07-20T02:30:03;16.20;99.90
22065;DHT22;11197;53.110;8.468;2023-07-20T02:32:30;16.20;99.90
22065;DHT22;11197;53.110;8.468;2023-07-20T02:34:57;16.20;99.90
22065;DHT22;11197;53.110;8.468;2023-07-20T02:37:23;16.20;99.90
22065;DHT22;11197;53.110;8.468;2023-07-20T02:39:48;16.20;99.90
22065;DHT22;11197;53.110;8.468;2023-07-20T02:42:14;16.20;99.90
22065;DHT22;11197;53.110;8.468;2023-07-20T02:44:40;16.20;99.90
22065;DHT22;11197;53.110;8.468;2023-07-20T02:47:06;16.20;99.90
22065;DHT22;11197;53.110;8.468;2023-07-20T02:49:32;16.10;99.90
22065;DHT22;11197;53.110;8.468;2023-07-20T02:51:57;16.10;99.90
22065;DHT22;11197;53.110;8.468;2023-07-20T02:54:23;16.10;99.90
22065;DHT22;11197;53.110;8.468;2023-07-20T02:56:49;16.10;99.90
22065;DHT22;11197;53.110;8.468;2023-07-20T02:59:14;16.10;99.90
22065;DHT22;11197;53.110;8.468;2023-07-20T03:01:40;16.10;99.90
22065;DHT22;11197;53.110;8.468;2023-07-20T03:04:08;16.10;99.90
22065;DHT22;11197;53.110;8.468;2023-07-20T03:06:36;16.10;99.90
22065;DHT22;11197;53.110;8.468;2023-07-20T03:09:02;16.10;99.90
22065;DHT22;11197;53.110;8.468;2023-07-20T03:11:29;16.10;99.90
22065;DHT22;11197;53.110;8.468;2023-07-20T03:13:54;16.10;99.90
22065;DHT22;11197;53.110;8.468;2023-07-20T03:16:24;16.10;99.90
22065;DHT22;11197;53.110;8.468;2023-07-20T03:18:51;16.10;99.90
22065;DHT22;11197;53.110;8.468;2023-07-20T03:21:17;16.10;99.90
22065;DHT22;11197;53.110;8.468;2023-07-20T03:23:43;16.00;99.90
22065;DHT22;11197;53.110;8.468;2023-07-20T03:26:09;16.10;99.90
22065;DHT22;11197;53.110;8.468;2023-07-20T03:28:36;16.10;99.90
22065;DHT22;11197;53.110;8.468;2023-07-20T03:31:02;16.10;99.90
22065;DHT22;11197;53.110;8.468;2023-07-20T03:33:31;16.10;99.90
22065;DHT22;11197;53.110;8.468;2023-07-20T03:35:58;16.10;99.90
22065;DHT22;11197;53.110;8.468;2023-07-20T03:38:25;16.10;99.90
22065;DHT22;11197;53.110;8.468;2023-07-20T03:41:00;16.00;99.90
22065;DHT22;11197;53.110;8.468;2023-07-20T03:43:27;16.10;99.90
22065;DHT22;11197;53.110;8.468;2023-07-20T03:45:54;16.10;99.90
22065;DHT22;11197;53.110;8.468;2023-07-20T03:48:24;16.00;99.90
22065;DHT22;11197;53.110;8.468;2023-07-20T03:50:51;16.00;99.90
22065;DHT22;11197;53.110;8.468;2023-07-20T03:53:18;16.00;99.90
22065;DHT22;11197;53.110;8.468;2023-07-20T03:55:51;16.00;99.90
22065;DHT22;11197;53.110;8.468;2023-07-20T03:58:17;16.00;99.90
22065;DHT22;11197;53.110;8.468;2023-07-20T04:00:48;16.00;99.90
22065;DHT22;11197;53.110;8.468;2023-07-20T04:03:13;16.00;99.90
22065;DHT22;11197;53.110;8.468;2023-07-20T04:05:39;16.00;99.90
22065;DHT22;11197;53.110;8.468;2023-07-20T04:08:05;16.00;99.90
22065;DHT22;11197;53.110;8.468;2023-07-20T04:10:31;16.00;99.90
22065;DHT22;11197;53.110;8.468;2023-07-20T04:12:57;16.00;99.90
22065;DHT22;11197;53.110;8.468;2023-07-20T04:15:22;16.00;99.90
22065;DHT22;11197;53.110;8.468;2023-07-20T04:17:48;16.00;99.90
22065;DHT22;11197;53.110;8.468;2023-07-20T04:20:14;16.00;99.90
22065;DHT22;11197;53.110;8.468;2023-07-20T04:22:40;15.90;99.90
22065;DHT22;11197;53.110;8.468;2023-07-20T04:25:09;16.00;99.90
22065;DHT22;11197;53.110;8.468;2023-07-20T04:27:35;15.90;99.90
22065;DHT22;11197;53.110;8.468;2023-07-20T04:30:01;15.90;99.90
22065;DHT22;11197;53.110;8.468;2023-07-20T04:32:28;15.90;99.90
22065;DHT22;11197;53.110;8.468;2023-07-20T04:34:54;15.90;99.90
22065;DHT22;11197;53.110;8.468;2023-07-20T04:37:20;15.90;99.90
22065;DHT22;11197;53.110;8.468;2023-07-20T04:39:47;15.90;99.90
22065;DHT22;11197;53.110;8.468;2023-07-20T04:42:14;15.90;99.90
22065;DHT22;11197;53.110;8.468;2023-07-20T04:44:40;15.90;99.90
22065;DHT22;11197;53.110;8.468;2023-07-20T04:47:07;15.80;99.90
22065;DHT22;11197;53.110;8.468;2023-07-20T04:49:36;15.80;99.90
22065;DHT22;11197;53.110;8.468;2023-07-20T04:52:02;15.80;99.90
22065;DHT22;11197;53.110;8.468;2023-07-20T04:54:28;15.80;99.90
22065;DHT22;11197;53.110;8.468;2023-07-20T04:56:54;15.80;99.90
22065;DHT22;11197;53.110;8.468;2023-07-20T04:59:21;15.80;99.90
22065;DHT22;11197;53.110;8.468;2023-07-20T05:01:46;15.80;99.90
22065;DHT22;11197;53.110;8.468;2023-07-20T05:04:12;15.80;99.90
22065;DHT22;11197;53.110;8.468;2023-07-20T05:06:38;15.80;99.90
22065;DHT22;11197;53.110;8.468;2023-07-20T05:09:05;15.80;99.90
22065;DHT22;11197;53.110;8.468;2023-07-20T05:11:32;15.80;99.90
22065;DHT22;11197;53.110;8.468;2023-07-20T05:13:58;15.80;99.90
22065;DHT22;11197;53.110;8.468;2023-07-20T05:16:23;15.80;99.90
22065;DHT22;11197;53.110;8.468;2023-07-20T05:18:50;15.80;99.90
22065;DHT22;11197;53.110;8.468;2023-07-20T05:21:16;15.70;99.90
22065;DHT22;11197;53.110;8.468;2023-07-20T05:23:42;15.80;99.90
22065;DHT22;11197;53.110;8.468;2023-07-20T05:26:08;15.80;99.90
22065;DHT22;11197;53.110;8.468;2023-07-20T05:28:34;15.80;99.90
22065;DHT22;11197;53.110;8.468;2023-07-20T05:31:03;15.70;99.90
22065;DHT22;11197;53.110;8.468;2023-07-20T05:33:28;15.70;99.90
22065;DHT22;11197;53.110;8.468;2023-07-20T05:35:54;15.80;99.90
22065;DHT22;11197;53.110;8.468;2023-07-20T05:38:20;15.70;99.90
22065;DHT22;11197;53.110;8.468;2023-07-20T05:40:45;15.70;99.90
22065;DHT22;11197;53.110;8.468;2023-07-20T05:43:12;15.70;99.90
22065;DHT22;11197;53.110;8.468;2023-07-20T05:45:41;15.80;99.90
22065;DHT22;11197;53.110;8.468;2023-07-20T05:48:07;15.80;99.90
22065;DHT22;11197;53.110;8.468;2023-07-20T05:50:35;15.90;99.90
22065;DHT22;11197;53.110;8.468;2023-07-20T05:53:00;16.00;99.90
22065;DHT22;11197;53.110;8.468;2023-07-20T05:55:26;16.10;99.90
22065;DHT22;11197;53.110;8.468;2023-07-20T05:57:51;16.30;99.90
22065;DHT22;11197;53.110;8.468;2023-07-20T06:00:17;16.40;99.90
22065;DHT22;11197;53.110;8.468;2023-07-20T06:02:44;16.50;99.90
22065;DHT22;11197;53.110;8.468;2023-07-20T06:05:10;16.60;99.90
22065;DHT22;11197;53.110;8.468;2023-07-20T06:07:38;16.80;99.90
22065;DHT22;11197;53.110;8.468;2023-07-20T06:10:05;16.90;99.90
22065;DHT22;11197;53.110;8.468;2023-07-20T06:12:31;17.10;99.90
22065;DHT22;11197;53.110;8.468;2023-07-20T06:15:02;17.20;99.90
22065;DHT22;11197;53.110;8.468;2023-07-20T06:17:28;17.30;99.90
22065;DHT22;11197;53.110;8.468;2023-07-20T06:19:54;17.40;99.90
22065;DHT22;11197;53.110;8.468;2023-07-20T06:22:20;17.50;99.90
22065;DHT22;11197;53.110;8.468;2023-07-20T06:24:45;17.60;99.90
22065;DHT22;11197;53.110;8.468;2023-07-20T06:27:11;17.70;99.90
22065;DHT22;11197;53.110;8.468;2023-07-20T06:29:37;17.80;99.90
22065;DHT22;11197;53.110;8.468;2023-07-20T06:32:04;17.80;99.90
22065;DHT22;11197;53.110;8.468;2023-07-20T06:34:30;17.90;99.90
22065;DHT22;11197;53.110;8.468;2023-07-20T06:36:55;17.90;99.90
22065;DHT22;11197;53.110;8.468;2023-07-20T06:39:21;18.00;99.90
22065;DHT22;11197;53.110;8.468;2023-07-20T06:41:47;18.00;99.90
22065;DHT22;11197;53.110;8.468;2023-07-20T06:44:13;18.00;99.90
22065;DHT22;11197;53.110;8.468;2023-07-20T06:46:39;18.10;99.90
22065;DHT22;11197;53.110;8.468;2023-07-20T06:49:06;18.00;99.90
22065;DHT22;11197;53.110;8.468;2023-07-20T06:51:33;18.10;99.90
22065;DHT22;11197;53.110;8.468;2023-07-20T06:53:59;18.10;99.90
22065;DHT22;11197;53.110;8.468;2023-07-20T06:56:24;18.20;99.90
22065;DHT22;11197;53.110;8.468;2023-07-20T06:58:50;18.20;99.90
22065;DHT22;11197;53.110;8.468;2023-07-20T07:01:15;18.20;99.90
22065;DHT22;11197;53.110;8.468;2023-07-20T07:03:42;18.20;99.90
22065;DHT22;11197;53.110;8.468;2023-07-20T07:06:09;18.20;99.90
22065;DHT22;11197;53.110;8.468;2023-07-20T07:08:34;18.20;99.90
22065;DHT22;11197;53.110;8.468;2023-07-20T07:11:00;18.20;99.90
22065;DHT22;11197;53.110;8.468;2023-07-20T07:13:26;18.20;99.90
22065;DHT22;11197;53.110;8.468;2023-07-20T07:15:51;18.20;99.90
22065;DHT22;11197;53.110;8.468;2023-07-20T07:18:17;18.10;99.90
22065;DHT22;11197;53.110;8.468;2023-07-20T07:20:50;18.10;99.90
22065;DHT22;11197;53.110;8.468;2023-07-20T07:23:16;18.10;99.90
22065;DHT22;11197;53.110;8.468;2023-07-20T07:25:42;18.10;99.90
22065;DHT22;11197;53.110;8.468;2023-07-20T07:28:07;18.10;99.90
22065;DHT22;11197;53.110;8.468;2023-07-20T07:30:33;18.00;99.90
22065;DHT22;11197;53.110;8.468;2023-07-20T07:32:58;18.10;99.90
22065;DHT22;11197;53.110;8.468;2023-07-20T07:35:24;18.10;99.90
22065;DHT22;11197;53.110;8.468;2023-07-20T07:37:50;18.00;99.90
22065;DHT22;11197;53.110;8.468;2023-07-20T07:40:15;18.00;99.90
22065;DHT22;11197;53.110;8.468;2023-07-20T07:42:41;18.00;99.90
22065;DHT22;11197;53.110;8.468;2023-07-20T07:45:07;18.00;99.90
22065;DHT22;11197;53.110;8.468;2023-07-20T07:47:33;18.10;99.90
22065;DHT22;11197;53.110;8.468;2023-07-20T07:49:58;18.00;99.90
22065;DHT22;11197;53.110;8.468;2023-07-20T07:52:25;18.00;99.90
22065;DHT22;11197;53.110;8.468;2023-07-20T07:54:50;17.90;99.90
22065;DHT22;11197;53.110;8.468;2023-07-20T07:57:16;17.90;99.90
22065;DHT22;11197;53.110;8.468;2023-07-20T07:59:42;17.80;99.90
22065;DHT22;11197;53.110;8.468;2023-07-20T08:02:07;17.80;99.90
22065;DHT22;11197;53.110;8.468;2023-07-20T08:04:33;17.90;99.90
22065;DHT22;11197;53.110;8.468;2023-07-20T08:06:59;17.90;99.90
22065;DHT22;11197;53.110;8.468;2023-07-20T08:09:25;18.00;99.90
22065;DHT22;11197;53.110;8.468;2023-07-20T08:11:51;17.90;99.90
22065;DHT22;11197;53.110;8.468;2023-07-20T08:14:16;17.90;99.90
22065;DHT22;11197;53.110;8.468;2023-07-20T08:16:42;17.90;99.90
22065;DHT22;11197;53.110;8.468;2023-07-20T08:19:08;17.90;99.90
22065;DHT22;11197;53.110;8.468;2023-07-20T08:21:34;17.90;99.90
22065;DHT22;11197;53.110;8.468;2023-07-20T08:23:59;17.90;99.90
22065;DHT22;11197;53.110;8.468;2023-07-20T08:26:25;17.90;99.90
22065;DHT22;11197;53.110;8.468;2023-07-20T08:28:51;18.00;99.90
22065;DHT22;11197;53.110;8.468;2023-07-20T08:31:17;18.00;99.90
22065;DHT22;11197;53.110;8.468;2023-07-20T08:33:43;18.00;99.90
22065;DHT22;11197;53.110;8.468;2023-07-20T08:36:09;18.10;99.90
22065;DHT22;11197;53.110;8.468;2023-07-20T08:38:35;18.20;99.90
22065;DHT22;11197;53.110;8.468;2023-07-20T08:41:00;18.30;99.90
22065;DHT22;11197;53.110;8.468;2023-07-20T08:43:27;18.20;99.90
22065;DHT22;11197;53.110;8.468;2023-07-20T08:45:57;18.20;99.90
22065;DHT22;11197;53.110;8.468;2023-07-20T08:48:24;18.20;99.90
22065;DHT22;11197;53.110;8.468;2023-07-20T08:50:51;18.20;99.90
22065;DHT22;11197;53.110;8.468;2023-07-20T08:53:18;18.20;99.90
22065;DHT22;11197;53.110;8.468;2023-07-20T08:55:45;18.30;99.90
22065;DHT22;11197;53.110;8.468;2023-07-20T08:58:13;18.40;99.90
22065;DHT22;11197;53.110;8.468;2023-07-20T09:00:41;18.40;99.90
22065;DHT22;11197;53.110;8.468;2023-07-20T09:03:07;18.50;99.90
22065;DHT22;11197;53.110;8.468;2023-07-20T09:05:34;18.60;99.90
22065;DHT22;11197;53.110;8.468;2023-07-20T09:08:01;18.60;99.90
22065;DHT22;11197;53.110;8.468;2023-07-20T09:10:29;18.70;99.90
22065;DHT22;11197;53.110;8.468;2023-07-20T09:12:55;18.60;99.90
22065;DHT22;11197;53.110;8.468;2023-07-20T09:15:22;18.70;99.90
22065;DHT22;11197;53.110;8.468;2023-07-20T09:17:49;18.70;99.90
22065;DHT22;11197;53.110;8.468;2023-07-20T09:20:19;18.80;99.90
22065;DHT22;11197;53.110;8.468;2023-07-20T09:22:45;18.80;99.90
22065;DHT22;11197;53.110;8.468;2023-07-20T09:25:12;18.80;99.90
22065;DHT22;11197;53.110;8.468;2023-07-20T09:27:47;18.80;99.90
22065;DHT22;11197;53.110;8.468;2023-07-20T09:30:14;18.80;99.90
22065;DHT22;11197;53.110;8.468;2023-07-20T09:32:47;18.80;99.90
22065;DHT22;11197;53.110;8.468;2023-07-20T09:35:15;18.80;99.90
22065;DHT22;11197;53.110;8.468;2023-07-20T09:37:57;18.80;99.90
22065;DHT22;11197;53.110;8.468;2023-07-20T09:40:25;18.80;99.90
22065;DHT22;11197;53.110;8.468;2023-07-20T09:42:53;18.80;99.90
22065;DHT22;11197;53.110;8.468;2023-07-20T09:45:34;18.80;99.90
22065;DHT22;11197;53.110;8.468;2023-07-20T09:48:05;18.60;99.90
22065;DHT22;11197;53.110;8.468;2023-07-20T09:50:33;18.50;99.90
22065;DHT22;11197;53.110;8.468;2023-07-20T09:53:00;18.40;99.90
22065;DHT22;11197;53.110;8.468;2023-07-20T09:55:28;18.20;99.90
22065;DHT22;11197;53.110;8.468;2023-07-20T09:57:54;18.10;99.90
22065;DHT22;11197;53.110;8.468;2023-07-20T10:00:21;18.00;99.90
22065;DHT22;11197;53.110;8.468;2023-07-20T10:02:48;17.90;99.90
22065;DHT22;11197;53.110;8.468;2023-07-20T10:05:16;17.90;99.90
22065;DHT22;11197;53.110;8.468;2023-07-20T10:07:50;17.90;99.90
22065;DHT22;11197;53.110;8.468;2023-07-20T10:10:18;17.90;99.90
22065;DHT22;11197;53.110;8.468;2023-07-20T10:12:48;18.00;99.90
22065;DHT22;11197;53.110;8.468;2023-07-20T10:18:07;18.10;99.90
22065;DHT22;11197;53.110;8.468;2023-07-20T10:20:37;18.10;99.90
22065;DHT22;11197;53.110;8.468;2023-07-20T10:23:04;18.20;99.90
22065;DHT22;11197;53.110;8.468;2023-07-20T10:25:31;18.20;99.90
22065;DHT22;11197;53.110;8.468;2023-07-20T10:27:58;18.20;99.90
22065;DHT22;11197;53.110;8.468;2023-07-20T10:30:25;18.30;99.90
22065;DHT22;11197;53.110;8.468;2023-07-20T10:32:52;18.30;99.90
22065;DHT22;11197;53.110;8.468;2023-07-20T10:35:18;18.40;99.90
22065;DHT22;11197;53.110;8.468;2023-07-20T10:37:52;18.40;99.90
22065;DHT22;11197;53.110;8.468;2023-07-20T10:43:01;18.40;99.90
22065;DHT22;11197;53.110;8.468;2023-07-20T10:45:40;18.40;99.90
22065;DHT22;11197;53.110;8.468;2023-07-20T10:48:17;18.40;99.90
22065;DHT22;11197;53.110;8.468;2023-07-20T10:50:45;18.50;99.90
22065;DHT22;11197;53.110;8.468;2023-07-20T10:53:16;18.50;99.90
22065;DHT22;11197;53.110;8.468;2023-07-20T10:55:42;18.50;99.90
22065;DHT22;11197;53.110;8.468;2023-07-20T10:58:15;18.60;99.90
22065;DHT22;11197;53.110;8.468;2023-07-20T11:01:03;18.70;99.90
22065;DHT22;11197;53.110;8.468;2023-07-20T11:03:30;18.80;99.90
22065;DHT22;11197;53.110;8.468;2023-07-20T11:05:57;18.80;99.90
22065;DHT22;11197;53.110;8.468;2023-07-20T11:08:44;18.90;99.90
22065;DHT22;11197;53.110;8.468;2023-07-20T11:11:29;18.90;99.90
22065;DHT22;11197;53.110;8.468;2023-07-20T11:13:57;18.90;99.90
22065;DHT22;11197;53.110;8.468;2023-07-20T11:16:41;18.90;99.90
22065;DHT22;11197;53.110;8.468;2023-07-20T11:19:24;18.90;99.90
22065;DHT22;11197;53.110;8.468;2023-07-20T11:21:55;19.00;99.90
22065;DHT22;11197;53.110;8.468;2023-07-20T11:24:21;19.00;99.90
22065;DHT22;11197;53.110;8.468;2023-07-20T11:26:54;19.10;99.90
22065;DHT22;11197;53.110;8.468;2023-07-20T11:29:23;19.10;99.90
22065;DHT22;11197;53.110;8.468;2023-07-20T11:31:51;19.10;99.90
22065;DHT22;11197;53.110;8.468;2023-07-20T11:34:25;19.10;99.90
22065;DHT22;11197;53.110;8.468;2023-07-20T11:36:52;19.10;99.90
22065;DHT22;11197;53.110;8.468;2023-07-20T11:39:19;19.20;99.90
22065;DHT22;11197;53.110;8.468;2023-07-20T11:41:48;19.20;99.90
22065;DHT22;11197;53.110;8.468;2023-07-20T11:44:16;19.30;99.90
22065;DHT22;11197;53.110;8.468;2023-07-20T11:46:42;19.20;99.90
22065;DHT22;11197;53.110;8.468;2023-07-20T11:49:08;19.20;99.90
22065;DHT22;11197;53.110;8.468;2023-07-20T11:51:34;19.20;99.90
22065;DHT22;11197;53.110;8.468;2023-07-20T11:54:02;19.20;99.90
22065;DHT22;11197;53.110;8.468;2023-07-20T11:56:28;19.10;99.90
22065;DHT22;11197;53.110;8.468;2023-07-20T11:59:00;19.10;99.90
22065;DHT22;11197;53.110;8.468;2023-07-20T12:01:29;19.10;99.90
22065;DHT22;11197;53.110;8.468;2023-07-20T12:03:57;19.00;99.90
22065;DHT22;11197;53.110;8.468;2023-07-20T12:06:27;18.90;99.90
22065;DHT22;11197;53.110;8.468;2023-07-20T12:08:57;18.80;99.90
22065;DHT22;11197;53.110;8.468;2023-07-20T12:11:34;18.80;99.90
22065;DHT22;11197;53.110;8.468;2023-07-20T12:14:00;18.70;99.90
22065;DHT22;11197;53.110;8.468;2023-07-20T12:16:27;18.70;99.90
22065;DHT22;11197;53.110;8.468;2023-07-20T12:35:47;18.80;99.90
22065;DHT22;11197;53.110;8.468;2023-07-20T12:38:13;18.80;99.90
22065;DHT22;11197;53.110;8.468;2023-07-20T12:40:39;18.80;99.90
22065;DHT22;11197;53.110;8.468;2023-07-20T12:43:06;18.80;99.90
22065;DHT22;11197;53.110;8.468;2023-07-20T12:45:32;18.80;99.90
22065;DHT22;11197;53.110;8.468;2023-07-20T12:47:58;18.80;99.90
22065;DHT22;11197;53.110;8.468;2023-07-20T12:50:23;18.80;99.90
22065;DHT22;11197;53.110;8.468;2023-07-20T12:52:49;18.90;99.90
22065;DHT22;11197;53.110;8.468;2023-07-20T12:55:15;18.90;99.90
22065;DHT22;11197;53.110;8.468;2023-07-20T12:57:41;19.00;99.90
22065;DHT22;11197;53.110;8.468;2023-07-20T13:00:11;19.10;99.90
22065;DHT22;11197;53.110;8.468;2023-07-20T13:02:38;19.10;99.90
22065;DHT22;11197;53.110;8.468;2023-07-20T13:05:04;19.20;99.90
22065;DHT22;11197;53.110;8.468;2023-07-20T13:07:35;19.20;99.90
22065;DHT22;11197;53.110;8.468;2023-07-20T13:10:03;19.30;99.90
22065;DHT22;11197;53.110;8.468;2023-07-20T13:12:30;19.30;99.90
22065;DHT22;11197;53.110;8.468;2023-07-20T13:14:56;19.40;99.90
22065;DHT22;11197;53.110;8.468;2023-07-20T13:17:22;19.50;99.90
22065;DHT22;11197;53.110;8.468;2023-07-20T13:19:48;19.60;99.90
22065;DHT22;11197;53.110;8.468;2023-07-20T13:22:14;19.70;99.90
22065;DHT22;11197;53.110;8.468;2023-07-20T13:24:41;19.80;99.90
22065;DHT22;11197;53.110;8.468;2023-07-20T13:27:07;19.90;99.90
22065;DHT22;11197;53.110;8.468;2023-07-20T13:29:32;19.80;99.90
22065;DHT22;11197;53.110;8.468;2023-07-20T13:31:58;19.80;99.90
22065;DHT22;11197;53.110;8.468;2023-07-20T13:34:25;19.80;99.90
22065;DHT22;11197;53.110;8.468;2023-07-20T13:36:51;19.80;99.90
22065;DHT22;11197;53.110;8.468;2023-07-20T13:39:17;19.80;99.90
22065;DHT22;11197;53.110;8.468;2023-07-20T13:41:44;19.90;99.90
22065;DHT22;11197;53.110;8.468;2023-07-20T13:44:10;19.90;99.90
22065;DHT22;11197;53.110;8.468;2023-07-20T13:46:36;19.90;99.90
22065;DHT22;11197;53.110;8.468;2023-07-20T13:49:01;20.00;99.90
22065;DHT22;11197;53.110;8.468;2023-07-20T13:51:27;20.10;99.90
22065;DHT22;11197;53.110;8.468;2023-07-20T13:53:53;20.10;99.90
22065;DHT22;11197;53.110;8.468;2023-07-20T13:56:19;20.10;99.90
22065;DHT22;11197;53.110;8.468;2023-07-20T13:58:45;20.10;99.90
22065;DHT22;11197;53.110;8.468;2023-07-20T14:01:10;20.00;99.90
22065;DHT22;11197;53.110;8.468;2023-07-20T14:03:36;20.10;99.90
22065;DHT22;11197;53.110;8.468;2023-07-20T14:06:03;20.10;99.90
22065;DHT22;11197;53.110;8.468;2023-07-20T14:08:28;20.10;99.90
22065;DHT22;11197;53.110;8.468;2023-07-20T14:10:56;20.10;99.90
22065;DHT22;11197;53.110;8.468;2023-07-20T14:13:22;20.10;99.90
22065;DHT22;11197;53.110;8.468;2023-07-20T14:15:48;20.10;99.90
22065;DHT22;11197;53.110;8.468;2023-07-20T14:18:15;20.00;99.90
22065;DHT22;11197;53.110;8.468;2023-07-20T14:20:41;20.00;99.90
22065;DHT22;11197;53.110;8.468;2023-07-20T14:23:07;20.00;99.90
22065;DHT22;11197;53.110;8.468;2023-07-20T14:25:33;20.00;99.90
22065;DHT22;11197;53.110;8.468;2023-07-20T14:27:59;19.90;99.90
22065;DHT22;11197;53.110;8.468;2023-07-20T14:30:25;19.90;99.90
22065;DHT22;11197;53.110;8.468;2023-07-20T14:32:51;19.90;99.90
22065;DHT22;11197;53.110;8.468;2023-07-20T14:35:17;19.90;99.90
22065;DHT22;11197;53.110;8.468;2023-07-20T14:37:42;19.90;99.90
22065;DHT22;11197;53.110;8.468;2023-07-20T14:40:12;19.90;99.90
22065;DHT22;11197;53.110;8.468;2023-07-20T14:42:38;19.90;99.90
22065;DHT22;11197;53.110;8.468;2023-07-20T14:45:05;19.90;99.90
22065;DHT22;11197;53.110;8.468;2023-07-20T14:47:31;19.90;99.90
22065;DHT22;11197;53.110;8.468;2023-07-20T14:50:01;19.90;99.90
22065;DHT22;11197;53.110;8.468;2023-07-20T14:52:30;19.90;99.90
22065;DHT22;11197;53.110;8.468;2023-07-20T14:54:56;19.90;99.90
22065;DHT22;11197;53.110;8.468;2023-07-20T14:57:22;20.00;99.90
22065;DHT22;11197;53.110;8.468;2023-07-20T14:59:51;20.00;99.90
22065;DHT22;11197;53.110;8.468;2023-07-20T15:02:18;20.00;99.90
22065;DHT22;11197;53.110;8.468;2023-07-20T15:04:48;19.90;99.90
22065;DHT22;11197;53.110;8.468;2023-07-20T15:07:16;19.90;99.90
22065;DHT22;11197;53.110;8.468;2023-07-20T15:09:41;19.90;99.90
22065;DHT22;11197;53.110;8.468;2023-07-20T15:12:08;19.90;99.90
22065;DHT22;11197;53.110;8.468;2023-07-20T15:14:34;19.90;99.90
22065;DHT22;11197;53.110;8.468;2023-07-20T15:17:01;19.90;99.90
22065;DHT22;11197;53.110;8.468;2023-07-20T15:19:28;19.90;99.90
22065;DHT22;11197;53.110;8.468;2023-07-20T15:21:53;19.90;99.90
22065;DHT22;11197;53.110;8.468;2023-07-20T15:24:19;19.90;99.90
22065;DHT22;11197;53.110;8.468;2023-07-20T15:26:45;19.90;99.90
22065;DHT22;11197;53.110;8.468;2023-07-20T15:29:10;19.90;99.90
22065;DHT22;11197;53.110;8.468;2023-07-20T15:31:36;19.90;99.90
22065;DHT22;11197;53.110;8.468;2023-07-20T15:34:02;19.90;99.90
22065;DHT22;11197;53.110;8.468;2023-07-20T15:36:28;19.90;99.90
22065;DHT22;11197;53.110;8.468;2023-07-20T15:38:53;19.90;99.90
22065;DHT22;11197;53.110;8.468;2023-07-20T15:41:19;19.90;99.90
22065;DHT22;11197;53.110;8.468;2023-07-20T15:43:45;19.90;99.90
22065;DHT22;11197;53.110;8.468;2023-07-20T15:48:45;19.80;99.90
22065;DHT22;11197;53.110;8.468;2023-07-20T15:51:11;19.80;99.90
22065;DHT22;11197;53.110;8.468;2023-07-20T15:53:36;19.80;99.90
22065;DHT22;11197;53.110;8.468;2023-07-20T15:56:03;19.70;99.90
22065;DHT22;11197;53.110;8.468;2023-07-20T15:58:29;19.70;99.90
22065;DHT22;11197;53.110;8.468;2023-07-20T16:00:55;19.60;99.90
22065;DHT22;11197;53.110;8.468;2023-07-20T16:03:22;19.50;99.90